sensor_id;sensor_type;location;lat;lon;timestamp;temperature;humidity
42261;DHT22;27926;48.062;7.474;2024-02-21T00:00:32;5.20;99.90
42261;DHT22;27926;48.062;7.474;2024-02-21T00:02:57;5.30;99.90
42261;DHT22;27926;48.062;7.474;2024-02-21T00:05:23;5.30;99.90
42261;DHT22;27926;48.062;7.474;2024-02-21T00:07:48;5.30;99.90
42261;DHT22;27926;48.062;7.474;2024-02-21T00:10:13;5.40;99.90
42261;DHT22;27926;48.062;7.474;2024-02-21T00:12:37;5.40;99.90
42261;DHT22;27926;48.062;7.474;2024-02-21T00:15:02;5.50;99.90
42261;DHT22;27926;48.062;7.474;2024-02-21T00:17:27;5.60;99.90
42261;DHT22;27926;48.062;7.474;2024-02-21T00:19:51;5.60;99.90
42261;DHT22;27926;48.062;7.474;2024-02-21T00:22:16;5.70;99.90
42261;DHT22;27926;48.062;7.474;2024-02-21T00:24:41;5.70;99.90
42261;DHT22;27926;48.062;7.474;2024-02-21T00:27:06;5.70;99.90
42261;DHT22;27926;48.062;7.474;2024-02-21T00:29:30;5.70;99.90
42261;DHT22;27926;48.062;7.474;2024-02-21T00:31:55;5.60;99.90
42261;DHT22;27926;48.062;7.474;2024-02-21T00:34:19;5.60;99.90
42261;DHT22;27926;48.062;7.474;2024-02-21T00:36:44;5.80;99.90
42261;DHT22;27926;48.062;7.474;2024-02-21T00:39:09;5.60;99.90
42261;DHT22;27926;48.062;7.474;2024-02-21T00:41:33;5.60;99.90
42261;DHT22;27926;48.062;7.474;2024-02-21T00:43:58;5.60;99.90
42261;DHT22;27926;48.062;7.474;2024-02-21T00:46:22;5.80;99.90
42261;DHT22;27926;48.062;7.474;2024-02-21T00:48:47;5.70;99.90
42261;DHT22;27926;48.062;7.474;2024-02-21T00:51:11;5.90;99.90
42261;DHT22;27926;48.062;7.474;2024-02-21T00:53:36;5.80;99.90
42261;DHT22;27926;48.062;7.474;2024-02-21T00:56:02;5.80;99.90
42261;DHT22;27926;48.062;7.474;2024-02-21T00:58:27;5.80;99.90
42261;DHT22;27926;48.062;7.474;2024-02-21T01:00:52;5.90;99.90
42261;DHT22;27926;48.062;7.474;2024-02-21T01:03:17;5.90;99.90
42261;DHT22;27926;48.062;7.474;2024-02-21T01:05:42;5.90;99.90
42261;DHT22;27926;48.062;7.474;2024-02-21T01:08:07;6.10;99.90
42261;DHT22;27926;48.062;7.474;2024-02-21T01:10:32;6.00;99.90
42261;DHT22;27926;48.062;7.474;2024-02-21T01:12:56;5.90;99.90
42261;DHT22;27926;48.062;7.474;2024-02-21T01:15:21;5.90;99.90
42261;DHT22;27926;48.062;7.474;2024-02-21T01:17:46;6.00;99.90
42261;DHT22;27926;48.062;7.474;2024-02-21T01:20:11;6.00;99.90
42261;DHT22;27926;48.062;7.474;2024-02-21T01:22:35;6.00;99.90
42261;DHT22;27926;48.062;7.474;2024-02-21T01:25:00;5.90;99.90
42261;DHT22;27926;48.062;7.474;2024-02-21T01:27:24;5.90;99.90
42261;DHT22;27926;48.062;7.474;2024-02-21T01:29:49;5.90;99.90
42261;DHT22;27926;48.062;7.474;2024-02-21T01:32:14;5.90;99.90
42261;DHT22;27926;48.062;7.474;2024-02-21T01:34:38;5.90;99.90
42261;DHT22;27926;48.062;7.474;2024-02-21T01:37:03;5.90;99.90
42261;DHT22;27926;48.062;7.474;2024-02-21T01:39:29;6.00;99.90
42261;DHT22;27926;48.062;7.474;2024-02-21T01:41:54;6.00;99.90
42261;DHT22;27926;48.062;7.474;2024-02-21T01:44:18;5.90;99.90
42261;DHT22;27926;48.062;7.474;2024-02-21T01:46:43;6.10;99.90
42261;DHT22;27926;48.062;7.474;2024-02-21T01:49:08;5.90;99.90
42261;DHT22;27926;48.062;7.474;2024-02-21T01:51:33;5.90;99.90
42261;DHT22;27926;48.062;7.474;2024-02-21T01:53:58;6.00;99.90
42261;DHT22;27926;48.062;7.474;2024-02-21T01:56:22;6.00;99.90
42261;DHT22;27926;48.062;7.474;2024-02-21T01:58:48;6.00;99.90
42261;DHT22;27926;48.062;7.474;2024-02-21T02:01:13;5.90;99.90
42261;DHT22;27926;48.062;7.474;2024-02-21T02:03:37;5.90;99.90
42261;DHT22;27926;48.062;7.474;2024-02-21T02:06:03;6.00;99.90
42261;DHT22;27926;48.062;7.474;2024-02-21T02:08:29;5.90;99.90
42261;DHT22;27926;48.062;7.474;2024-02-21T02:10:53;5.90;99.90
42261;DHT22;27926;48.062;7.474;2024-02-21T02:13:18;5.90;99.90
42261;DHT22;27926;48.062;7.474;2024-02-21T02:15:44;6.10;99.90
42261;DHT22;27926;48.062;7.474;2024-02-21T02:18:10;5.90;99.90
42261;DHT22;27926;48.062;7.474;2024-02-21T02:20:35;5.90;99.90
42261;DHT22;27926;48.062;7.474;2024-02-21T02:23:09;5.90;99.90
42261;DHT22;27926;48.062;7.474;2024-02-21T02:25:38;5.90;99.90
42261;DHT22;27926;48.062;7.474;2024-02-21T02:28:05;5.90;99.90
42261;DHT22;27926;48.062;7.474;2024-02-21T02:30:33;5.90;99.90
42261;DHT22;27926;48.062;7.474;2024-02-21T02:32:59;5.80;99.90
42261;DHT22;27926;48.062;7.474;2024-02-21T02:35:23;5.80;99.90
42261;DHT22;27926;48.062;7.474;2024-02-21T02:37:49;5.80;99.90
42261;DHT22;27926;48.062;7.474;2024-02-21T02:40:14;5.80;99.90
42261;DHT22;27926;48.062;7.474;2024-02-21T02:42:39;5.70;99.90
42261;DHT22;27926;48.062;7.474;2024-02-21T02:45:03;5.70;99.90
42261;DHT22;27926;48.062;7.474;2024-02-21T02:47:28;5.70;99.90
42261;DHT22;27926;48.062;7.474;2024-02-21T02:49:53;5.70;99.90
42261;DHT22;27926;48.062;7.474;2024-02-21T02:52:17;5.70;99.90
42261;DHT22;27926;48.062;7.474;2024-02-21T02:54:42;5.70;99.90
42261;DHT22;27926;48.062;7.474;2024-02-21T02:57:07;5.60;99.90
42261;DHT22;27926;48.062;7.474;2024-02-21T02:59:32;5.60;99.90
42261;DHT22;27926;48.062;7.474;2024-02-21T03:01:57;5.50;99.90
42261;DHT22;27926;48.062;7.474;2024-02-21T03:04:21;5.40;99.90
42261;DHT22;27926;48.062;7.474;2024-02-21T03:06:46;5.30;99.90
42261;DHT22;27926;48.062;7.474;2024-02-21T03:09:11;5.20;99.90
42261;DHT22;27926;48.062;7.474;2024-02-21T03:11:37;5.10;99.90
42261;DHT22;27926;48.062;7.474;2024-02-21T03:14:02;5.00;99.90
42261;DHT22;27926;48.062;7.474;2024-02-21T03:16:26;5.00;99.90
42261;DHT22;27926;48.062;7.474;2024-02-21T03:18:54;4.90;99.90
42261;DHT22;27926;48.062;7.474;2024-02-21T03:21:19;4.90;99.90
42261;DHT22;27926;48.062;7.474;2024-02-21T03:23:43;4.80;99.90
42261;DHT22;27926;48.062;7.474;2024-02-21T03:26:08;4.70;99.90
42261;DHT22;27926;48.062;7.474;2024-02-21T03:28:32;4.70;99.90
42261;DHT22;27926;48.062;7.474;2024-02-21T03:30:57;4.70;99.90
42261;DHT22;27926;48.062;7.474;2024-02-21T03:33:22;4.70;99.90
42261;DHT22;27926;48.062;7.474;2024-02-21T03:35:47;4.60;99.90
42261;DHT22;27926;48.062;7.474;2024-02-21T03:38:12;4.60;99.90
42261;DHT22;27926;48.062;7.474;2024-02-21T03:40:37;4.60;99.90
42261;DHT22;27926;48.062;7.474;2024-02-21T03:43:01;4.60;99.90
42261;DHT22;27926;48.062;7.474;2024-02-21T03:45:26;4.60;99.90
42261;DHT22;27926;48.062;7.474;2024-02-21T03:47:50;4.60;99.90
42261;DHT22;27926;48.062;7.474;2024-02-21T03:50:15;4.80;99.90
42261;DHT22;27926;48.062;7.474;2024-02-21T03:52:40;4.50;99.90
42261;DHT22;27926;48.062;7.474;2024-02-21T03:55:04;4.40;99.90
42261;DHT22;27926;48.062;7.474;2024-02-21T03:57:32;4.30;99.90
42261;DHT22;27926;48.062;7.474;2024-02-21T03:59:56;4.20;99.90
42261;DHT22;27926;48.062;7.474;2024-02-21T04:02:21;4.20;99.90
42261;DHT22;27926;48.062;7.474;2024-02-21T04:04:45;4.10;99.90
42261;DHT22;27926;48.062;7.474;2024-02-21T04:07:11;4.30;99.90
42261;DHT22;27926;48.062;7.474;2024-02-21T04:09:35;4.10;99.90
42261;DHT22;27926;48.062;7.474;2024-02-21T04:12:00;4.40;99.90
42261;DHT22;27926;48.062;7.474;2024-02-21T04:14:25;4.00;99.90
42261;DHT22;27926;48.062;7.474;2024-02-21T04:16:49;4.00;99.90
42261;DHT22;27926;48.062;7.474;2024-02-21T04:19:14;3.90;99.90
42261;DHT22;27926;48.062;7.474;2024-02-21T04:21:39;4.00;99.90
42261;DHT22;27926;48.062;7.474;2024-02-21T04:24:03;3.90;99.90
42261;DHT22;27926;48.062;7.474;2024-02-21T04:26:29;3.80;99.90
42261;DHT22;27926;48.062;7.474;2024-02-21T04:28:54;3.90;99.90
42261;DHT22;27926;48.062;7.474;2024-02-21T04:31:18;3.90;99.90
42261;DHT22;27926;48.062;7.474;2024-02-21T04:33:43;3.90;99.90
42261;DHT22;27926;48.062;7.474;2024-02-21T04:36:08;3.90;99.90
42261;DHT22;27926;48.062;7.474;2024-02-21T04:38:33;3.90;99.90
42261;DHT22;27926;48.062;7.474;2024-02-21T04:40:58;3.90;99.90
42261;DHT22;27926;48.062;7.474;2024-02-21T04:43:22;3.90;99.90
42261;DHT22;27926;48.062;7.474;2024-02-21T04:45:48;3.80;99.90
42261;DHT22;27926;48.062;7.474;2024-02-21T04:48:13;3.80;99.90
42261;DHT22;27926;48.062;7.474;2024-02-21T04:50:38;3.70;99.90
42261;DHT22;27926;48.062;7.474;2024-02-21T04:53:02;3.60;99.90
42261;DHT22;27926;48.062;7.474;2024-02-21T04:55:27;3.50;99.90
42261;DHT22;27926;48.062;7.474;2024-02-21T04:57:51;3.90;99.90
42261;DHT22;27926;48.062;7.474;2024-02-21T05:00:16;3.60;99.90
42261;DHT22;27926;48.062;7.474;2024-02-21T05:02:41;3.20;99.90
42261;DHT22;27926;48.062;7.474;2024-02-21T05:05:06;3.20;99.90
42261;DHT22;27926;48.062;7.474;2024-02-21T05:07:31;3.10;99.90
42261;DHT22;27926;48.062;7.474;2024-02-21T05:09:55;3.20;99.90
42261;DHT22;27926;48.062;7.474;2024-02-21T05:12:20;3.30;99.90
42261;DHT22;27926;48.062;7.474;2024-02-21T05:14:44;3.30;99.90
42261;DHT22;27926;48.062;7.474;2024-02-21T05:17:09;3.50;99.90
42261;DHT22;27926;48.062;7.474;2024-02-21T05:19:33;3.40;99.90
42261;DHT22;27926;48.062;7.474;2024-02-21T05:21:59;3.80;99.90
42261;DHT22;27926;48.062;7.474;2024-02-21T05:24:26;3.40;99.90
42261;DHT22;27926;48.062;7.474;2024-02-21T05:26:51;3.40;99.90
42261;DHT22;27926;48.062;7.474;2024-02-21T05:29:16;3.40;99.90
42261;DHT22;27926;48.062;7.474;2024-02-21T05:34:18;3.50;99.90
42261;DHT22;27926;48.062;7.474;2024-02-21T05:36:42;3.60;99.90
42261;DHT22;27926;48.062;7.474;2024-02-21T05:39:07;3.50;99.90
42261;DHT22;27926;48.062;7.474;2024-02-21T05:41:31;3.50;99.90
42261;DHT22;27926;48.062;7.474;2024-02-21T05:43:56;3.70;99.90
42261;DHT22;27926;48.062;7.474;2024-02-21T05:46:20;3.40;99.90
42261;DHT22;27926;48.062;7.474;2024-02-21T05:48:45;3.50;99.90
42261;DHT22;27926;48.062;7.474;2024-02-21T05:51:10;4.00;99.90
42261;DHT22;27926;48.062;7.474;2024-02-21T05:53:35;3.40;99.90
42261;DHT22;27926;48.062;7.474;2024-02-21T05:56:00;3.60;99.90
42261;DHT22;27926;48.062;7.474;2024-02-21T05:58:26;3.30;99.90
42261;DHT22;27926;48.062;7.474;2024-02-21T06:00:50;3.60;99.90
42261;DHT22;27926;48.062;7.474;2024-02-21T06:03:15;3.20;99.90
42261;DHT22;27926;48.062;7.474;2024-02-21T06:05:40;3.20;99.90
42261;DHT22;27926;48.062;7.474;2024-02-21T06:08:05;3.10;99.90
42261;DHT22;27926;48.062;7.474;2024-02-21T06:10:29;3.10;99.90
42261;DHT22;27926;48.062;7.474;2024-02-21T06:12:54;3.10;99.90
42261;DHT22;27926;48.062;7.474;2024-02-21T06:15:18;3.10;99.90
42261;DHT22;27926;48.062;7.474;2024-02-21T06:17:43;3.00;99.90
42261;DHT22;27926;48.062;7.474;2024-02-21T06:20:08;3.00;99.90
42261;DHT22;27926;48.062;7.474;2024-02-21T06:22:33;3.00;99.90
42261;DHT22;27926;48.062;7.474;2024-02-21T06:24:58;3.20;99.90
42261;DHT22;27926;48.062;7.474;2024-02-21T06:27:22;3.00;99.90
42261;DHT22;27926;48.062;7.474;2024-02-21T06:29:48;2.90;99.90
42261;DHT22;27926;48.062;7.474;2024-02-21T06:32:13;2.90;99.90
42261;DHT22;27926;48.062;7.474;2024-02-21T06:34:38;3.20;99.90
42261;DHT22;27926;48.062;7.474;2024-02-21T06:37:02;3.40;99.90
42261;DHT22;27926;48.062;7.474;2024-02-21T06:39:29;2.90;99.90
42261;DHT22;27926;48.062;7.474;2024-02-21T06:41:54;3.40;99.90
42261;DHT22;27926;48.062;7.474;2024-02-21T06:44:21;3.00;99.90
42261;DHT22;27926;48.062;7.474;2024-02-21T06:46:45;3.00;99.90
42261;DHT22;27926;48.062;7.474;2024-02-21T06:49:10;3.10;99.90
42261;DHT22;27926;48.062;7.474;2024-02-21T06:51:40;3.10;99.90
42261;DHT22;27926;48.062;7.474;2024-02-21T06:54:04;3.60;99.90
42261;DHT22;27926;48.062;7.474;2024-02-21T06:56:29;3.20;99.90
42261;DHT22;27926;48.062;7.474;2024-02-21T06:58:56;3.60;99.90
42261;DHT22;27926;48.062;7.474;2024-02-21T07:01:21;3.50;99.90
42261;DHT22;27926;48.062;7.474;2024-02-21T07:03:46;3.20;99.90
42261;DHT22;27926;48.062;7.474;2024-02-21T07:06:10;3.70;99.90
42261;DHT22;27926;48.062;7.474;2024-02-21T07:08:35;3.50;99.90
42261;DHT22;27926;48.062;7.474;2024-02-21T07:11:00;3.40;99.90
42261;DHT22;27926;48.062;7.474;2024-02-21T07:13:24;3.50;99.90
42261;DHT22;27926;48.062;7.474;2024-02-21T07:15:50;3.50;99.90
42261;DHT22;27926;48.062;7.474;2024-02-21T07:18:14;3.60;99.90
42261;DHT22;27926;48.062;7.474;2024-02-21T07:20:39;3.80;99.90
42261;DHT22;27926;48.062;7.474;2024-02-21T07:23:05;3.80;99.90
42261;DHT22;27926;48.062;7.474;2024-02-21T07:25:30;4.00;99.90
42261;DHT22;27926;48.062;7.474;2024-02-21T07:27:55;3.90;99.90
42261;DHT22;27926;48.062;7.474;2024-02-21T07:30:20;4.00;99.90
42261;DHT22;27926;48.062;7.474;2024-02-21T07:32:44;4.10;99.90
42261;DHT22;27926;48.062;7.474;2024-02-21T07:35:09;4.20;99.90
42261;DHT22;27926;48.062;7.474;2024-02-21T07:37:39;4.20;99.90
42261;DHT22;27926;48.062;7.474;2024-02-21T07:40:09;4.40;99.90
42261;DHT22;27926;48.062;7.474;2024-02-21T07:42:36;4.30;99.90
42261;DHT22;27926;48.062;7.474;2024-02-21T07:45:01;5.90;99.90
42261;DHT22;27926;48.062;7.474;2024-02-21T07:47:26;4.40;99.90
42261;DHT22;27926;48.062;7.474;2024-02-21T07:49:50;4.60;99.90
42261;DHT22;27926;48.062;7.474;2024-02-21T07:52:15;4.60;99.90
42261;DHT22;27926;48.062;7.474;2024-02-21T07:54:40;4.70;99.90
42261;DHT22;27926;48.062;7.474;2024-02-21T07:57:05;5.00;99.90
42261;DHT22;27926;48.062;7.474;2024-02-21T07:59:30;4.80;99.90
42261;DHT22;27926;48.062;7.474;2024-02-21T08:01:58;4.90;99.90
42261;DHT22;27926;48.062;7.474;2024-02-21T08:04:23;5.10;99.90
42261;DHT22;27926;48.062;7.474;2024-02-21T08:06:52;5.20;99.90
42261;DHT22;27926;48.062;7.474;2024-02-21T08:09:17;5.30;99.90
42261;DHT22;27926;48.062;7.474;2024-02-21T08:11:42;5.40;99.90
42261;DHT22;27926;48.062;7.474;2024-02-21T08:14:06;5.50;99.90
42261;DHT22;27926;48.062;7.474;2024-02-21T08:16:31;5.60;99.90
42261;DHT22;27926;48.062;7.474;2024-02-21T08:18:56;5.70;99.90
42261;DHT22;27926;48.062;7.474;2024-02-21T08:21:20;5.80;99.90
42261;DHT22;27926;48.062;7.474;2024-02-21T08:23:45;6.00;99.90
42261;DHT22;27926;48.062;7.474;2024-02-21T08:26:09;6.20;99.90
42261;DHT22;27926;48.062;7.474;2024-02-21T08:28:34;6.50;99.90
42261;DHT22;27926;48.062;7.474;2024-02-21T08:30:59;6.40;99.90
42261;DHT22;27926;48.062;7.474;2024-02-21T08:33:23;6.50;99.90
42261;DHT22;27926;48.062;7.474;2024-02-21T08:35:49;6.60;99.90
42261;DHT22;27926;48.062;7.474;2024-02-21T08:38:14;6.70;99.90
42261;DHT22;27926;48.062;7.474;2024-02-21T08:40:38;6.80;99.90
42261;DHT22;27926;48.062;7.474;2024-02-21T08:43:03;6.90;99.90
42261;DHT22;27926;48.062;7.474;2024-02-21T08:45:28;6.90;99.90
42261;DHT22;27926;48.062;7.474;2024-02-21T08:47:52;7.00;99.90
42261;DHT22;27926;48.062;7.474;2024-02-21T08:50:17;7.00;99.90
42261;DHT22;27926;48.062;7.474;2024-02-21T08:52:41;7.00;99.90
42261;DHT22;27926;48.062;7.474;2024-02-21T08:55:07;7.20;99.90
42261;DHT22;27926;48.062;7.474;2024-02-21T08:57:31;7.20;99.90
42261;DHT22;27926;48.062;7.474;2024-02-21T09:00:00;7.30;99.90
42261;DHT22;27926;48.062;7.474;2024-02-21T09:02:25;7.40;99.90
42261;DHT22;27926;48.062;7.474;2024-02-21T09:04:50;7.50;99.90
42261;DHT22;27926;48.062;7.474;2024-02-21T09:07:14;7.60;99.90
42261;DHT22;27926;48.062;7.474;2024-02-21T09:09:39;7.70;99.90
42261;DHT22;27926;48.062;7.474;2024-02-21T09:12:07;7.90;99.90
42261;DHT22;27926;48.062;7.474;2024-02-21T09:14:33;8.00;99.90
42261;DHT22;27926;48.062;7.474;2024-02-21T09:16:58;8.20;99.90
42261;DHT22;27926;48.062;7.474;2024-02-21T09:19:23;8.30;99.90
42261;DHT22;27926;48.062;7.474;2024-02-21T09:21:47;8.40;99.90
42261;DHT22;27926;48.062;7.474;2024-02-21T09:24:12;8.50;99.90
42261;DHT22;27926;48.062;7.474;2024-02-21T09:26:36;8.50;99.90
42261;DHT22;27926;48.062;7.474;2024-02-21T09:29:01;8.60;99.90
42261;DHT22;27926;48.062;7.474;2024-02-21T09:31:26;8.70;99.90
42261;DHT22;27926;48.062;7.474;2024-02-21T09:33:51;8.80;99.90
42261;DHT22;27926;48.062;7.474;2024-02-21T09:36:15;8.90;99.90
42261;DHT22;27926;48.062;7.474;2024-02-21T09:38:40;9.00;99.90
42261;DHT22;27926;48.062;7.474;2024-02-21T09:41:16;9.00;99.90
42261;DHT22;27926;48.062;7.474;2024-02-21T09:43:44;9.00;99.90
42261;DHT22;27926;48.062;7.474;2024-02-21T09:46:18;9.20;99.90
42261;DHT22;27926;48.062;7.474;2024-02-21T09:51:35;9.60;99.90
42261;DHT22;27926;48.062;7.474;2024-02-21T09:54:01;9.90;99.90
42261;DHT22;27926;48.062;7.474;2024-02-21T09:56:27;10.10;99.90
42261;DHT22;27926;48.062;7.474;2024-02-21T09:58:52;10.10;99.90
42261;DHT22;27926;48.062;7.474;2024-02-21T10:01:16;10.20;99.90
42261;DHT22;27926;48.062;7.474;2024-02-21T10:03:41;10.20;99.90
42261;DHT22;27926;48.062;7.474;2024-02-21T10:06:07;10.30;99.90
42261;DHT22;27926;48.062;7.474;2024-02-21T10:08:32;10.40;99.90
42261;DHT22;27926;48.062;7.474;2024-02-21T10:10:57;10.60;99.90
42261;DHT22;27926;48.062;7.474;2024-02-21T10:13:28;10.60;99.90
42261;DHT22;27926;48.062;7.474;2024-02-21T10:16:06;10.70;99.90
42261;DHT22;27926;48.062;7.474;2024-02-21T10:18:31;10.80;99.90
42261;DHT22;27926;48.062;7.474;2024-02-21T10:21:07;10.90;99.90
42261;DHT22;27926;48.062;7.474;2024-02-21T10:24:01;11.00;99.90
42261;DHT22;27926;48.062;7.474;2024-02-21T10:26:26;11.10;99.90
42261;DHT22;27926;48.062;7.474;2024-02-21T10:28:51;11.10;99.90
42261;DHT22;27926;48.062;7.474;2024-02-21T10:31:24;11.10;99.90
42261;DHT22;27926;48.062;7.474;2024-02-21T10:33:58;11.20;99.90
42261;DHT22;27926;48.062;7.474;2024-02-21T10:36:26;11.30;99.90
42261;DHT22;27926;48.062;7.474;2024-02-21T10:38:51;11.40;99.90
42261;DHT22;27926;48.062;7.474;2024-02-21T10:41:19;11.40;99.90
42261;DHT22;27926;48.062;7.474;2024-02-21T10:43:49;11.50;99.90
42261;DHT22;27926;48.062;7.474;2024-02-21T10:46:19;11.50;99.90
42261;DHT22;27926;48.062;7.474;2024-02-21T10:48:45;11.40;99.90
42261;DHT22;27926;48.062;7.474;2024-02-21T10:51:17;11.40;99.90
42261;DHT22;27926;48.062;7.474;2024-02-21T10:53:45;11.50;99.90
42261;DHT22;27926;48.062;7.474;2024-02-21T10:58:50;11.50;99.90
42261;DHT22;27926;48.062;7.474;2024-02-21T11:01:18;11.60;99.90
42261;DHT22;27926;48.062;7.474;2024-02-21T11:03:44;11.70;99.90
42261;DHT22;27926;48.062;7.474;2024-02-21T11:06:11;11.80;99.90
42261;DHT22;27926;48.062;7.474;2024-02-21T11:08:36;11.90;99.90
42261;DHT22;27926;48.062;7.474;2024-02-21T11:11:01;11.90;99.90
42261;DHT22;27926;48.062;7.474;2024-02-21T11:13:51;12.00;99.90
42261;DHT22;27926;48.062;7.474;2024-02-21T11:16:23;12.00;99.90
42261;DHT22;27926;48.062;7.474;2024-02-21T11:18:47;12.00;99.90
42261;DHT22;27926;48.062;7.474;2024-02-21T11:21:12;12.00;99.90
42261;DHT22;27926;48.062;7.474;2024-02-21T11:23:37;12.00;99.90
42261;DHT22;27926;48.062;7.474;2024-02-21T11:26:08;12.00;99.90
42261;DHT22;27926;48.062;7.474;2024-02-21T11:28:34;12.10;99.90
42261;DHT22;27926;48.062;7.474;2024-02-21T11:31:08;12.10;99.90
42261;DHT22;27926;48.062;7.474;2024-02-21T11:33:33;12.00;99.90
42261;DHT22;27926;48.062;7.474;2024-02-21T11:35:58;12.10;99.90
42261;DHT22;27926;48.062;7.474;2024-02-21T11:38:23;12.10;99.90
42261;DHT22;27926;48.062;7.474;2024-02-21T11:40:49;12.10;99.90
42261;DHT22;27926;48.062;7.474;2024-02-21T11:43:15;12.10;99.90
42261;DHT22;27926;48.062;7.474;2024-02-21T11:45:39;12.10;99.90
42261;DHT22;27926;48.062;7.474;2024-02-21T11:48:06;12.10;99.90
42261;DHT22;27926;48.062;7.474;2024-02-21T11:50:30;12.20;99.90
42261;DHT22;27926;48.062;7.474;2024-02-21T11:52:55;12.30;99.90
42261;DHT22;27926;48.062;7.474;2024-02-21T11:55:20;12.40;99.90
42261;DHT22;27926;48.062;7.474;2024-02-21T11:57:44;12.50;99.90
42261;DHT22;27926;48.062;7.474;2024-02-21T12:00:17;12.50;99.90
42261;DHT22;27926;48.062;7.474;2024-02-21T12:02:44;12.50;99.90
42261;DHT22;27926;48.062;7.474;2024-02-21T12:05:12;12.50;99.90
42261;DHT22;27926;48.062;7.474;2024-02-21T12:07:37;12.60;99.90
42261;DHT22;27926;48.062;7.474;2024-02-21T12:10:11;12.80;99.90
42261;DHT22;27926;48.062;7.474;2024-02-21T12:12:37;12.90;99.90
42261;DHT22;27926;48.062;7.474;2024-02-21T12:15:02;12.80;99.90
42261;DHT22;27926;48.062;7.474;2024-02-21T12:17:28;12.80;99.90
42261;DHT22;27926;48.062;7.474;2024-02-21T12:19:53;12.80;99.90
42261;DHT22;27926;48.062;7.474;2024-02-21T12:22:20;12.90;99.90
42261;DHT22;27926;48.062;7.474;2024-02-21T12:24:45;13.00;99.90
42261;DHT22;27926;48.062;7.474;2024-02-21T12:27:12;13.00;99.90
42261;DHT22;27926;48.062;7.474;2024-02-21T12:29:37;13.00;99.90
42261;DHT22;27926;48.062;7.474;2024-02-21T12:32:01;13.10;99.90
42261;DHT22;27926;48.062;7.474;2024-02-21T12:34:28;13.00;99.90
42261;DHT22;27926;48.062;7.474;2024-02-21T12:36:56;12.90;99.90
42261;DHT22;27926;48.062;7.474;2024-02-21T12:39:20;13.00;99.90
42261;DHT22;27926;48.062;7.474;2024-02-21T12:41:45;13.10;99.90
42261;DHT22;27926;48.062;7.474;2024-02-21T12:44:10;13.20;99.90
42261;DHT22;27926;48.062;7.474;2024-02-21T12:46:35;13.20;99.90
42261;DHT22;27926;48.062;7.474;2024-02-21T12:49:03;13.30;99.90
42261;DHT22;27926;48.062;7.474;2024-02-21T12:51:29;13.20;99.90
42261;DHT22;27926;48.062;7.474;2024-02-21T12:53:53;13.20;99.90
42261;DHT22;27926;48.062;7.474;2024-02-21T12:56:19;13.20;99.90
42261;DHT22;27926;48.062;7.474;2024-02-21T12:58:43;13.20;99.90
42261;DHT22;27926;48.062;7.474;2024-02-21T13:01:09;13.20;99.90
42261;DHT22;27926;48.062;7.474;2024-02-21T13:03:33;13.20;99.90
42261;DHT22;27926;48.062;7.474;2024-02-21T13:05:58;13.30;99.90
42261;DHT22;27926;48.062;7.474;2024-02-21T13:08:23;13.30;99.90
42261;DHT22;27926;48.062;7.474;2024-02-21T13:10:48;13.40;99.90
42261;DHT22;27926;48.062;7.474;2024-02-21T13:13:13;13.40;99.90
42261;DHT22;27926;48.062;7.474;2024-02-21T13:15:38;13.30;99.90
42261;DHT22;27926;48.062;7.474;2024-02-21T13:18:07;13.30;99.90
42261;DHT22;27926;48.062;7.474;2024-02-21T13:20:31;13.40;99.90
42261;DHT22;27926;48.062;7.474;2024-02-21T13:22:56;13.40;99.90
42261;DHT22;27926;48.062;7.474;2024-02-21T13:25:20;13.40;99.90
42261;DHT22;27926;48.062;7.474;2024-02-21T13:27:46;13.30;99.90
42261;DHT22;27926;48.062;7.474;2024-02-21T13:30:11;13.20;99.90
42261;DHT22;27926;48.062;7.474;2024-02-21T13:32:37;13.20;99.90
42261;DHT22;27926;48.062;7.474;2024-02-21T13:35:02;13.20;99.90
42261;DHT22;27926;48.062;7.474;2024-02-21T13:37:27;13.20;99.90
42261;DHT22;27926;48.062;7.474;2024-02-21T13:39:53;13.20;99.90
42261;DHT22;27926;48.062;7.474;2024-02-21T13:42:17;13.20;99.90
42261;DHT22;27926;48.062;7.474;2024-02-21T13:44:43;13.20;99.90
42261;DHT22;27926;48.062;7.474;2024-02-21T13:47:08;13.30;99.90
42261;DHT22;27926;48.062;7.474;2024-02-21T13:49:33;13.30;99.90
42261;DHT22;27926;48.062;7.474;2024-02-21T13:51:58;13.30;99.90
42261;DHT22;27926;48.062;7.474;2024-02-21T13:54:23;13.30;99.90
42261;DHT22;27926;48.062;7.474;2024-02-21T13:56:47;13.30;99.90
42261;DHT22;27926;48.062;7.474;2024-02-21T13:59:12;13.30;99.90
42261;DHT22;27926;48.062;7.474;2024-02-21T14:01:40;13.30;99.90
42261;DHT22;27926;48.062;7.474;2024-02-21T14:04:05;13.30;99.90
42261;DHT22;27926;48.062;7.474;2024-02-21T14:06:29;13.30;99.90
42261;DHT22;27926;48.062;7.474;2024-02-21T14:08:54;13.20;99.90
42261;DHT22;27926;48.062;7.474;2024-02-21T14:11:19;13.20;99.90
42261;DHT22;27926;48.062;7.474;2024-02-21T14:13:44;13.20;99.90
42261;DHT22;27926;48.062;7.474;2024-02-21T14:16:10;13.30;99.90
42261;DHT22;27926;48.062;7.474;2024-02-21T14:18:40;13.30;99.90
42261;DHT22;27926;48.062;7.474;2024-02-21T14:21:06;13.20;99.90
42261;DHT22;27926;48.062;7.474;2024-02-21T14:23:31;13.10;99.90
42261;DHT22;27926;48.062;7.474;2024-02-21T14:25:57;13.00;99.90
42261;DHT22;27926;48.062;7.474;2024-02-21T14:28:22;12.90;99.90
42261;DHT22;27926;48.062;7.474;2024-02-21T14:30:47;12.90;99.90
42261;DHT22;27926;48.062;7.474;2024-02-21T14:33:12;13.00;99.90
42261;DHT22;27926;48.062;7.474;2024-02-21T14:35:37;12.90;99.90
42261;DHT22;27926;48.062;7.474;2024-02-21T14:38:02;12.90;99.90
42261;DHT22;27926;48.062;7.474;2024-02-21T14:40:26;12.90;99.90
42261;DHT22;27926;48.062;7.474;2024-02-21T14:42:54;12.90;99.90
42261;DHT22;27926;48.062;7.474;2024-02-21T14:45:18;12.90;99.90
42261;DHT22;27926;48.062;7.474;2024-02-21T14:47:43;12.90;99.90
42261;DHT22;27926;48.062;7.474;2024-02-21T14:50:08;12.90;99.90
42261;DHT22;27926;48.062;7.474;2024-02-21T14:52:33;12.80;99.90
42261;DHT22;27926;48.062;7.474;2024-02-21T14:54:57;12.70;99.90
42261;DHT22;27926;48.062;7.474;2024-02-21T14:57:22;12.80;99.90
42261;DHT22;27926;48.062;7.474;2024-02-21T14:59:47;12.70;99.90
42261;DHT22;27926;48.062;7.474;2024-02-21T15:02:14;12.70;99.90
42261;DHT22;27926;48.062;7.474;2024-02-21T15:04:38;12.60;99.90
42261;DHT22;27926;48.062;7.474;2024-02-21T15:07:03;12.60;99.90
42261;DHT22;27926;48.062;7.474;2024-02-21T15:09:28;12.50;99.90
42261;DHT22;27926;48.062;7.474;2024-02-21T15:11:53;12.50;99.90
42261;DHT22;27926;48.062;7.474;2024-02-21T15:14:17;12.50;99.90
42261;DHT22;27926;48.062;7.474;2024-02-21T15:16:42;12.40;99.90
42261;DHT22;27926;48.062;7.474;2024-02-21T15:19:06;12.40;99.90
42261;DHT22;27926;48.062;7.474;2024-02-21T15:21:31;12.40;99.90
42261;DHT22;27926;48.062;7.474;2024-02-21T15:23:56;12.30;99.90
42261;DHT22;27926;48.062;7.474;2024-02-21T15:26:22;12.30;99.90
42261;DHT22;27926;48.062;7.474;2024-02-21T15:28:47;12.30;99.90
42261;DHT22;27926;48.062;7.474;2024-02-21T15:31:20;12.20;99.90
42261;DHT22;27926;48.062;7.474;2024-02-21T15:33:46;12.20;99.90
42261;DHT22;27926;48.062;7.474;2024-02-21T15:36:10;12.10;99.90